createdAt,value
2019-04-16T00:00:15.213Z,99.90
2019-04-16T00:02:43.815Z,99.90
2019-04-16T00:05:12.683Z,99.90
2019-04-16T00:07:42.485Z,99.90
2019-04-16T00:10:11.315Z,99.90
2019-04-16T00:12:39.959Z,99.90
2019-04-16T00:15:08.742Z,99.90
2019-04-16T00:17:37.394Z,99.90
2019-04-16T00:20:07.229Z,99.90
2019-04-16T00:22:35.964Z,99.90
2019-04-16T00:25:05.481Z,99.90
2019-04-16T00:27:34.126Z,99.90
2019-04-16T00:30:05.086Z,99.90
2019-04-16T00:32:34.015Z,99.90
2019-04-16T00:35:03.133Z,99.90
2019-04-16T00:37:31.809Z,99.90
2019-04-16T00:40:00.407Z,99.90
2019-04-16T00:42:29.063Z,99.90
2019-04-16T00:44:57.665Z,99.90
2019-04-16T00:47:26.261Z,99.90
2019-04-16T00:49:57.700Z,99.90
2019-04-16T00:52:25.283Z,99.90
2019-04-16T00:54:53.934Z,99.90
2019-04-16T00:57:22.576Z,99.90
2019-04-16T00:59:54.994Z,99.90
2019-04-16T01:02:21.546Z,99.90
2019-04-16T01:04:50.191Z,99.90
2019-04-16T01:07:18.842Z,99.90
2019-04-16T01:09:47.486Z,99.90
2019-04-16T01:12:16.132Z,99.90
2019-04-16T01:14:44.784Z,99.90
2019-04-16T01:17:13.387Z,99.90
2019-04-16T01:19:42.007Z,99.90
2019-04-16T01:22:10.799Z,99.90
2019-04-16T01:24:41.048Z,99.90
2019-04-16T01:27:09.903Z,99.90
2019-04-16T01:29:38.675Z,99.90
2019-04-16T01:32:10.541Z,99.90
2019-04-16T01:34:37.652Z,99.90
2019-04-16T01:37:06.304Z,99.90
2019-04-16T01:39:34.910Z,99.90
2019-04-16T01:42:03.512Z,99.90
2019-04-16T01:44:32.154Z,99.90
2019-04-16T01:47:03.369Z,99.90
2019-04-16T01:49:31.133Z,99.90
2019-04-16T01:51:59.739Z,99.90
2019-04-16T01:54:28.385Z,99.90
2019-04-16T01:56:59.912Z,99.90
2019-04-16T01:59:27.826Z,99.90
2019-04-16T02:01:56.499Z,99.90
2019-04-16T02:04:25.148Z,99.90
2019-04-16T02:06:54.373Z,99.90
2019-04-16T02:09:24.166Z,99.90
2019-04-16T02:11:52.819Z,99.90
2019-04-16T02:14:22.375Z,99.90
2019-04-16T02:16:55.792Z,99.90
2019-04-16T02:19:21.521Z,99.90
2019-04-16T02:21:50.176Z,99.90
2019-04-16T02:24:19.439Z,99.90
2019-04-16T02:26:48.187Z,99.90
2019-04-16T02:29:16.782Z,99.90
2019-04-16T02:31:47.862Z,99.90
2019-04-16T02:34:15.768Z,99.90
2019-04-16T02:36:44.372Z,99.90
2019-04-16T02:39:13.023Z,99.90
2019-04-16T02:41:41.671Z,99.90
2019-04-16T02:44:14.028Z,99.90
2019-04-16T02:46:40.642Z,99.90
2019-04-16T02:49:09.245Z,99.90
2019-04-16T02:51:41.350Z,99.90
2019-04-16T02:54:08.271Z,99.90
2019-04-16T02:56:37.180Z,99.90
2019-04-16T02:59:11.756Z,99.90
2019-04-16T03:01:36.888Z,99.90
2019-04-16T03:04:05.529Z,99.90
2019-04-16T03:06:34.301Z,99.90
2019-04-16T03:09:05.367Z,99.90
2019-04-16T03:11:34.806Z,99.90
2019-04-16T03:14:03.695Z,99.90
2019-04-16T03:16:32.408Z,99.90
2019-04-16T03:19:01.008Z,99.90
2019-04-16T03:21:29.672Z,99.90
2019-04-16T03:23:58.275Z,99.90
2019-04-16T03:26:26.924Z,99.90
2019-04-16T03:28:58.394Z,99.90
2019-04-16T03:31:25.918Z,99.90
2019-04-16T03:33:54.641Z,99.90
2019-04-16T03:36:23.288Z,99.90
2019-04-16T03:38:51.941Z,99.90
2019-04-16T03:41:20.546Z,99.90
2019-04-16T03:43:49.192Z,99.90
2019-04-16T03:46:17.839Z,99.90
2019-04-16T03:48:46.548Z,99.90
2019-04-16T03:51:15.202Z,99.90
2019-04-16T03:53:46.514Z,99.90
2019-04-16T03:56:14.218Z,99.90
2019-04-16T03:58:42.877Z,99.90
2019-04-16T04:01:14.222Z,99.90
2019-04-16T04:03:41.803Z,99.90
2019-04-16T04:06:10.452Z,99.90
2019-04-16T04:08:39.051Z,99.90
2019-04-16T04:11:10.407Z,99.90
2019-04-16T04:13:38.026Z,99.90
2019-04-16T04:16:06.837Z,99.90
2019-04-16T04:18:35.425Z,99.90
2019-04-16T04:21:04.142Z,99.90
2019-04-16T04:23:32.743Z,99.90
2019-04-16T04:26:01.396Z,99.90
2019-04-16T04:28:30.035Z,99.90
2019-04-16T04:31:01.016Z,99.90
2019-04-16T04:33:29.048Z,99.90
2019-04-16T04:35:57.702Z,99.90
2019-04-16T04:38:26.301Z,99.90
2019-04-16T04:40:54.946Z,99.90
2019-04-16T04:43:23.776Z,99.90
2019-04-16T04:45:52.376Z,99.90
2019-04-16T04:48:24.070Z,99.90
2019-04-16T04:50:51.467Z,99.90
2019-04-16T04:53:20.182Z,99.90
2019-04-16T04:55:48.897Z,99.90
2019-04-16T04:58:17.551Z,99.90
2019-04-16T05:00:46.152Z,99.90
2019-04-16T05:03:15.868Z,99.90
2019-04-16T05:05:45.140Z,99.90
2019-04-16T05:08:13.783Z,99.90
2019-04-16T05:10:43.418Z,99.90
2019-04-16T05:13:13.276Z,99.90
2019-04-16T05:15:42.003Z,99.90
2019-04-16T05:18:11.001Z,99.90
2019-04-16T05:20:39.730Z,99.90
2019-04-16T05:23:08.339Z,99.90
2019-04-16T05:25:36.937Z,99.90
2019-04-16T05:28:05.667Z,99.90
2019-04-16T05:30:34.739Z,99.90
2019-04-16T05:33:05.511Z,99.90
2019-04-16T05:35:33.794Z,99.90
2019-04-16T05:38:02.443Z,99.90
2019-04-16T05:40:34.215Z,99.90
2019-04-16T05:43:01.432Z,99.90
2019-04-16T05:45:30.036Z,99.90
2019-04-16T05:47:58.688Z,99.90
2019-04-16T05:50:29.641Z,99.90
2019-04-16T05:52:57.804Z,99.90
2019-04-16T05:55:26.403Z,99.90
2019-04-16T05:57:57.943Z,99.90
2019-04-16T06:00:25.548Z,99.90
2019-04-16T06:02:54.201Z,99.90
2019-04-16T06:05:26.769Z,99.90
2019-04-16T06:07:53.176Z,99.90
2019-04-16T06:10:21.773Z,99.90
2019-04-16T06:12:50.515Z,99.90
2019-04-16T06:15:22.296Z,99.90
2019-04-16T06:17:49.488Z,99.90
2019-04-16T06:20:20.764Z,99.90
2019-04-16T06:22:48.459Z,99.90
2019-04-16T06:25:17.140Z,99.90
2019-04-16T06:27:45.788Z,99.90
2019-04-16T06:30:14.818Z,99.90
2019-04-16T06:32:43.450Z,99.90
2019-04-16T06:35:12.172Z,99.90
2019-04-16T06:37:40.861Z,99.90
2019-04-16T06:40:09.470Z,99.90
2019-04-16T06:42:38.698Z,99.90
2019-04-16T06:45:08.560Z,99.90
2019-04-16T06:47:41.827Z,99.90
2019-04-16T06:50:07.745Z,99.90
2019-04-16T06:52:36.389Z,99.90
2019-04-16T06:55:06.329Z,99.90
2019-04-16T06:57:34.976Z,99.90
2019-04-16T07:00:07.150Z,99.90
2019-04-16T07:02:37.373Z,99.90
2019-04-16T07:05:06.480Z,99.90
2019-04-16T07:07:39.959Z,99.90
2019-04-16T07:10:05.994Z,99.90
2019-04-16T07:12:37.909Z,99.90
2019-04-16T07:15:07.463Z,99.90
2019-04-16T07:17:36.129Z,99.90
2019-04-16T07:20:06.736Z,99.90
2019-04-16T07:22:35.341Z,99.90
2019-04-16T07:25:06.657Z,99.90
2019-04-16T07:27:38.411Z,99.90
2019-04-16T07:30:08.835Z,99.90
2019-04-16T07:32:37.919Z,99.90
2019-04-16T07:35:07.389Z,99.90
2019-04-16T07:37:36.111Z,99.90
2019-04-16T07:40:10.256Z,99.90
2019-04-16T07:42:50.860Z,99.90
2019-04-16T07:45:11.456Z,99.90
2019-04-16T07:47:38.449Z,99.90
2019-04-16T07:50:07.682Z,99.90
2019-04-16T07:52:38.986Z,99.90
2019-04-16T07:55:07.170Z,99.90
2019-04-16T07:57:35.906Z,98.00
2019-04-16T08:00:09.801Z,97.20
2019-04-16T08:02:38.573Z,95.80
2019-04-16T08:05:09.135Z,95.10
2019-04-16T08:07:37.939Z,95.90
2019-04-16T08:10:06.922Z,94.00
2019-04-16T08:12:45.534Z,93.50
2019-04-16T08:15:15.501Z,90.50
2019-04-16T08:17:44.236Z,90.00
2019-04-16T08:20:13.130Z,87.60
2019-04-16T08:22:47.266Z,86.70
2019-04-16T08:25:12.208Z,84.20
2019-04-16T08:27:40.826Z,81.20
2019-04-16T08:30:10.147Z,81.70
2019-04-16T08:32:38.799Z,78.60
2019-04-16T08:35:07.566Z,80.80
2019-04-16T08:37:48.279Z,78.80
2019-04-16T08:40:08.987Z,79.80
2019-04-16T08:42:44.758Z,76.80
2019-04-16T08:45:09.640Z,75.40
2019-04-16T08:47:38.387Z,74.60
2019-04-16T08:50:07.290Z,71.00
2019-04-16T08:52:38.512Z,72.20
2019-04-16T08:55:06.476Z,68.20
2019-04-16T08:57:35.090Z,71.00
2019-04-16T09:00:06.903Z,68.90
2019-04-16T09:02:36.036Z,68.10
2019-04-16T09:05:10.917Z,70.30
2019-04-16T09:07:36.593Z,63.50
2019-04-16T09:10:17.641Z,62.10
2019-04-16T09:12:43.436Z,58.60
2019-04-16T09:15:10.529Z,59.40
2019-04-16T09:17:39.210Z,58.70
2019-04-16T09:20:09.113Z,56.60
2019-04-16T09:22:48.080Z,56.20
2019-04-16T09:25:12.525Z,54.50
2019-04-16T09:27:38.830Z,54.10
2019-04-16T09:30:10.346Z,52.30
2019-04-16T09:32:38.460Z,52.20
2019-04-16T09:35:10.777Z,51.70
2019-04-16T09:37:37.728Z,53.90
2019-04-16T09:40:16.597Z,54.70
2019-04-16T09:42:37.746Z,53.10
2019-04-16T09:45:07.591Z,52.10
2019-04-16T09:47:36.248Z,55.70
2019-04-16T09:50:09.642Z,63.90
2019-04-16T09:52:36.267Z,60.40
2019-04-16T09:55:05.718Z,62.90
2019-04-16T09:57:34.381Z,59.60
2019-04-16T10:00:08.476Z,62.20
2019-04-16T10:02:44.373Z,61.10
2019-04-16T10:05:17.119Z,59.40
2019-04-16T10:07:45.783Z,58.50
2019-04-16T10:10:14.500Z,59.20
2019-04-16T10:12:43.186Z,57.00
2019-04-16T10:15:12.511Z,57.30
2019-04-16T10:17:41.186Z,56.40
2019-04-16T10:20:09.998Z,55.50
2019-04-16T10:22:38.687Z,56.80
2019-04-16T10:25:07.812Z,55.50
2019-04-16T10:27:36.431Z,54.70
2019-04-16T10:30:07.231Z,54.80
2019-04-16T10:32:35.954Z,52.20
2019-04-16T10:35:05.376Z,49.90
2019-04-16T10:37:34.155Z,52.00
2019-04-16T10:40:10.315Z,47.60
2019-04-16T10:42:41.753Z,48.50
2019-04-16T10:45:12.913Z,49.80
2019-04-16T10:47:41.615Z,49.10
2019-04-16T10:50:10.995Z,50.60
2019-04-16T10:52:39.701Z,49.70
2019-04-16T10:55:12.176Z,47.00
2019-04-16T10:57:40.880Z,47.10
2019-04-16T11:00:10.465Z,48.20
2019-04-16T11:02:39.125Z,47.90
2019-04-16T11:05:08.334Z,47.90
2019-04-16T11:07:36.990Z,48.20
2019-04-16T11:10:06.994Z,46.90
2019-04-16T11:12:35.606Z,46.20
2019-04-16T11:15:05.227Z,47.70
2019-04-16T11:17:33.922Z,48.70
2019-04-16T11:20:03.209Z,48.60
2019-04-16T11:22:31.997Z,46.90
2019-04-16T11:25:00.722Z,46.30
2019-04-16T11:27:29.454Z,47.30
2019-04-16T11:29:58.077Z,47.20
2019-04-16T11:32:26.971Z,49.00
2019-04-16T11:34:55.988Z,47.80
2019-04-16T11:37:26.909Z,48.50
2019-04-16T11:39:58.451Z,46.20
2019-04-16T11:42:28.901Z,47.20
2019-04-16T11:44:57.532Z,47.00
2019-04-16T11:47:28.012Z,48.00
2019-04-16T11:49:56.532Z,46.50
2019-04-16T11:52:25.224Z,43.80
2019-04-16T11:54:53.960Z,42.60
2019-04-16T11:57:22.580Z,43.30
2019-04-16T12:00:05.800Z,42.60
2019-04-16T12:02:21.671Z,44.10
2019-04-16T12:04:50.376Z,42.70
2019-04-16T12:07:19.176Z,41.30
2019-04-16T12:09:47.907Z,43.10
2019-04-16T12:12:16.646Z,42.20
2019-04-16T12:14:45.305Z,41.10
2019-04-16T12:17:13.934Z,40.40
2019-04-16T12:19:44.785Z,40.20
2019-04-16T12:22:13.160Z,42.20
2019-04-16T12:24:41.881Z,40.10
2019-04-16T12:27:10.596Z,40.10
2019-04-16T12:29:39.228Z,42.60
2019-04-16T12:32:07.891Z,41.50
2019-04-16T12:34:36.625Z,40.70
2019-04-16T12:37:05.284Z,42.50
2019-04-16T12:39:35.829Z,41.40
2019-04-16T12:42:04.454Z,42.70
2019-04-16T12:44:44.570Z,42.20
2019-04-16T12:47:03.523Z,42.90
2019-04-16T12:49:32.369Z,42.20
2019-04-16T12:52:01.219Z,42.50
2019-04-16T12:54:30.214Z,40.50
2019-04-16T12:56:59.235Z,39.70
2019-04-16T12:59:27.976Z,41.10
2019-04-16T13:01:56.618Z,39.60
2019-04-16T13:04:25.548Z,40.60
2019-04-16T13:06:54.160Z,35.00
2019-04-16T13:09:22.862Z,30.80
2019-04-16T13:11:51.553Z,29.20
2019-04-16T13:14:20.282Z,28.20
2019-04-16T13:16:48.892Z,27.50
2019-04-16T13:19:17.629Z,27.70
2019-04-16T13:21:46.241Z,26.10
2019-04-16T13:24:15.287Z,25.40
2019-04-16T13:26:43.898Z,25.90
2019-04-16T13:29:12.915Z,24.50
2019-04-16T13:31:42.945Z,23.60
2019-04-16T13:34:11.629Z,22.60
2019-04-16T13:36:40.233Z,21.80
2019-04-16T13:39:10.253Z,20.90
2019-04-16T13:41:38.912Z,21.20
2019-04-16T13:44:08.986Z,19.90
2019-04-16T13:46:38.075Z,20.30
2019-04-16T13:49:06.842Z,20.40
2019-04-16T13:51:35.529Z,20.60
2019-04-16T13:54:04.431Z,19.80
2019-04-16T13:56:33.043Z,19.10
2019-04-16T13:59:01.706Z,19.00
2019-04-16T14:01:30.442Z,19.60
2019-04-16T14:03:59.276Z,19.60
2019-04-16T14:06:28.292Z,19.90
2019-04-16T14:08:56.947Z,19.90
2019-04-16T14:11:25.561Z,19.40
2019-04-16T14:13:54.387Z,20.00
2019-04-16T14:16:23.003Z,20.50
2019-04-16T14:18:51.613Z,20.50
2019-04-16T14:21:20.270Z,20.80
2019-04-16T14:23:48.894Z,20.60
2019-04-16T14:26:17.548Z,20.60
2019-04-16T14:28:52.295Z,20.50
2019-04-16T14:31:17.820Z,21.50
2019-04-16T14:33:46.648Z,20.50
2019-04-16T14:36:15.316Z,22.30
2019-04-16T14:38:43.921Z,23.50
2019-04-16T14:41:15.859Z,23.70
2019-04-16T14:43:42.917Z,22.20
2019-04-16T14:46:11.534Z,23.40
2019-04-16T14:48:45.184Z,23.60
2019-04-16T14:51:10.596Z,23.20
2019-04-16T14:53:39.257Z,22.90
2019-04-16T14:56:07.916Z,21.20
2019-04-16T14:58:36.531Z,21.20
2019-04-16T15:01:05.259Z,21.00
2019-04-16T15:03:33.872Z,21.30
2019-04-16T15:06:02.539Z,21.70
2019-04-16T15:08:31.138Z,21.40
2019-04-16T15:10:59.748Z,21.50
2019-04-16T15:13:28.478Z,22.20
2019-04-16T15:16:08.272Z,21.50
2019-04-16T15:18:27.484Z,21.40
2019-04-16T15:20:56.157Z,22.20
2019-04-16T15:23:24.828Z,21.00
2019-04-16T15:25:53.438Z,21.30
2019-04-16T15:28:22.101Z,21.90
2019-04-16T15:30:50.706Z,21.50
2019-04-16T15:33:19.364Z,21.60
2019-04-16T15:35:48.043Z,22.30
2019-04-16T15:38:16.876Z,21.90
2019-04-16T15:40:47.214Z,22.60
2019-04-16T15:43:19.288Z,22.90
2019-04-16T15:45:46.605Z,22.70
2019-04-16T15:48:18.038Z,23.60
2019-04-16T15:50:45.595Z,23.10
2019-04-16T15:53:14.262Z,23.00
2019-04-16T15:55:42.873Z,23.10
2019-04-16T15:58:11.535Z,23.50
2019-04-16T16:00:40.196Z,22.90
2019-04-16T16:03:08.802Z,23.90
2019-04-16T16:05:37.470Z,23.80
2019-04-16T16:08:06.150Z,23.30
2019-04-16T16:10:34.802Z,23.40
2019-04-16T16:13:03.775Z,23.30
2019-04-16T16:15:32.549Z,24.00
2019-04-16T16:18:01.352Z,24.70
2019-04-16T16:20:30.073Z,24.90
2019-04-16T16:22:59.499Z,25.90
2019-04-16T16:25:28.419Z,26.20
2019-04-16T16:27:57.079Z,26.80
2019-04-16T16:30:25.738Z,26.00
2019-04-16T16:32:54.676Z,27.30
2019-04-16T16:35:23.484Z,27.50
2019-04-16T16:37:52.165Z,27.40
2019-04-16T16:40:20.783Z,27.00
2019-04-16T16:42:49.478Z,27.20
2019-04-16T16:45:18.337Z,27.70
2019-04-16T16:47:46.996Z,28.40
2019-04-16T16:50:15.841Z,29.10
2019-04-16T16:52:44.743Z,29.50
2019-04-16T16:55:13.932Z,29.90
2019-04-16T16:57:42.598Z,29.70
2019-04-16T17:00:11.383Z,29.10
2019-04-16T17:02:39.996Z,30.40
2019-04-16T17:05:08.724Z,29.50
2019-04-16T17:07:37.400Z,30.10
2019-04-16T17:10:07.056Z,30.90
2019-04-16T17:12:35.662Z,30.00
2019-04-16T17:15:08.648Z,30.40
2019-04-16T17:17:36.699Z,31.10
2019-04-16T17:20:05.704Z,31.40
2019-04-16T17:22:34.366Z,31.60
2019-04-16T17:25:03.632Z,32.60
2019-04-16T17:27:32.281Z,32.40
2019-04-16T17:30:00.972Z,32.10
2019-04-16T17:32:29.630Z,32.20
2019-04-16T17:34:58.248Z,32.20
2019-04-16T17:37:28.664Z,33.10
2019-04-16T17:39:57.240Z,33.20
2019-04-16T17:42:25.900Z,34.10
2019-04-16T17:44:54.518Z,33.40
2019-04-16T17:47:31.781Z,33.00
2019-04-16T17:49:53.518Z,33.50
2019-04-16T17:52:22.314Z,34.10
2019-04-16T17:54:50.929Z,33.70
2019-04-16T17:57:22.913Z,34.30
2019-04-16T17:59:49.924Z,34.90
2019-04-16T18:02:18.590Z,35.80
2019-04-16T18:04:47.256Z,36.10
2019-04-16T18:07:15.870Z,36.00
2019-04-16T18:09:44.531Z,36.50
2019-04-16T18:12:13.187Z,37.20
2019-04-16T18:14:41.803Z,37.80
2019-04-16T18:17:10.606Z,38.60
2019-04-16T18:19:39.374Z,38.40
2019-04-16T18:22:07.987Z,39.20
2019-04-16T18:24:36.649Z,39.40
2019-04-16T18:27:05.335Z,39.80
2019-04-16T18:29:33.988Z,39.70
2019-04-16T18:32:02.601Z,40.10
2019-04-16T18:34:31.278Z,39.50
2019-04-16T18:37:00.106Z,40.10
2019-04-16T18:39:28.784Z,40.40
2019-04-16T18:41:57.496Z,40.30
2019-04-16T18:44:29.028Z,40.60
2019-04-16T18:46:56.632Z,41.10
2019-04-16T18:49:25.380Z,41.20
2019-04-16T18:51:54.044Z,42.20
2019-04-16T18:54:22.655Z,43.20
2019-04-16T18:56:51.534Z,43.80
2019-04-16T18:59:20.197Z,43.50
2019-04-16T19:01:49.475Z,43.20
2019-04-16T19:04:18.356Z,44.70
2019-04-16T19:06:47.136Z,45.80
2019-04-16T19:09:16.465Z,46.50
2019-04-16T19:11:45.074Z,46.90
2019-04-16T19:14:14.035Z,47.70
2019-04-16T19:16:42.869Z,47.40
2019-04-16T19:19:11.482Z,47.70
2019-04-16T19:21:42.375Z,48.10
2019-04-16T19:24:10.544Z,47.80
2019-04-16T19:26:39.205Z,49.20
2019-04-16T19:29:13.321Z,47.80
2019-04-16T19:31:38.278Z,47.30
2019-04-16T19:34:10.188Z,48.20
2019-04-16T19:36:37.430Z,49.90
2019-04-16T19:39:10.198Z,50.10
2019-04-16T19:41:37.089Z,51.10
2019-04-16T19:44:07.235Z,52.10
2019-04-16T19:46:36.088Z,52.60
2019-04-16T19:49:04.739Z,53.30
2019-04-16T19:51:33.349Z,53.60
2019-04-16T19:54:02.015Z,54.60
2019-04-16T19:56:33.450Z,56.10
2019-04-16T19:59:01.955Z,56.80
2019-04-16T20:01:30.565Z,57.10
2019-04-16T20:03:59.623Z,57.30
2019-04-16T20:06:28.409Z,57.90
2019-04-16T20:08:57.071Z,56.10
2019-04-16T20:11:25.686Z,57.80
2019-04-16T20:13:54.350Z,56.90
2019-04-16T20:16:22.957Z,57.20
2019-04-16T20:18:51.736Z,57.60
2019-04-16T20:21:20.412Z,58.80
2019-04-16T20:23:49.022Z,59.70
2019-04-16T20:26:17.677Z,60.70
2019-04-16T20:28:48.574Z,60.10
2019-04-16T20:31:16.681Z,59.60
2019-04-16T20:33:45.333Z,61.50
2019-04-16T20:36:13.992Z,60.20
2019-04-16T20:38:42.605Z,59.40
2019-04-16T20:41:11.259Z,62.00
2019-04-16T20:43:39.873Z,62.10
2019-04-16T20:46:08.532Z,63.60
2019-04-16T20:48:37.260Z,65.10
2019-04-16T20:51:06.133Z,65.70
2019-04-16T20:53:34.899Z,65.40
2019-04-16T20:56:03.703Z,66.00
2019-04-16T20:58:32.438Z,67.40
2019-04-16T21:01:01.183Z,68.50
2019-04-16T21:03:31.234Z,68.50
2019-04-16T21:06:00.290Z,69.50
2019-04-16T21:08:29.050Z,69.00
2019-04-16T21:10:59.790Z,68.80
2019-04-16T21:13:28.036Z,67.50
2019-04-16T21:15:57.217Z,69.40
2019-04-16T21:18:27.022Z,71.10
2019-04-16T21:20:55.696Z,71.60
2019-04-16T21:23:24.303Z,71.20
2019-04-16T21:25:52.913Z,73.50
2019-04-16T21:28:21.665Z,72.80
2019-04-16T21:30:50.379Z,74.00
2019-04-16T21:33:20.556Z,73.20
2019-04-16T21:35:49.402Z,73.80
2019-04-16T21:38:18.050Z,75.30
2019-04-16T21:40:46.659Z,77.40
2019-04-16T21:43:15.319Z,77.50
2019-04-16T21:45:45.634Z,78.80
2019-04-16T21:48:14.536Z,79.10
2019-04-16T21:50:44.513Z,78.80
2019-04-16T21:53:13.523Z,81.10
2019-04-16T21:55:42.174Z,79.90
2019-04-16T21:58:10.786Z,80.20
2019-04-16T22:00:39.442Z,80.90
2019-04-16T22:03:09.842Z,81.60
2019-04-16T22:05:38.663Z,82.70
2019-04-16T22:08:07.325Z,82.30
2019-04-16T22:10:35.998Z,84.20
2019-04-16T22:13:04.728Z,84.80
2019-04-16T22:15:33.375Z,86.20
2019-04-16T22:18:07.858Z,85.50
2019-04-16T22:20:35.819Z,87.10
2019-04-16T22:23:02.817Z,88.40
2019-04-16T22:25:31.470Z,87.50
2019-04-16T22:28:00.202Z,89.10
2019-04-16T22:30:28.858Z,88.70
2019-04-16T22:32:57.863Z,89.70
2019-04-16T22:35:26.562Z,90.20
2019-04-16T22:37:55.220Z,90.10
2019-04-16T22:40:23.873Z,89.80
2019-04-16T22:42:52.480Z,88.10
2019-04-16T22:45:21.130Z,90.00
2019-04-16T22:47:49.736Z,90.70
2019-04-16T22:50:18.448Z,90.80
2019-04-16T22:52:47.055Z,90.80
2019-04-16T22:55:15.715Z,90.70
2019-04-16T22:57:46.439Z,90.80
2019-04-16T23:00:14.827Z,90.90
2019-04-16T23:02:47.841Z,91.30
2019-04-16T23:05:13.861Z,91.90
2019-04-16T23:07:42.467Z,91.40
2019-04-16T23:10:11.257Z,91.60
2019-04-16T23:12:39.861Z,92.20
2019-04-16T23:15:08.820Z,92.50
2019-04-16T23:17:37.420Z,93.00
2019-04-16T23:20:06.406Z,93.00
2019-04-16T23:22:35.016Z,93.50
2019-04-16T23:25:04.662Z,93.00
2019-04-16T23:27:37.181Z,92.80
2019-04-16T23:30:05.952Z,93.50
2019-04-16T23:32:34.598Z,93.20
2019-04-16T23:35:09.189Z,93.10
2019-04-16T23:37:34.889Z,92.60
2019-04-16T23:40:07.119Z,94.30
2019-04-16T23:42:35.289Z,93.70
2019-04-16T23:45:06.135Z,93.80
2019-04-16T23:47:34.783Z,95.50
2019-04-16T23:50:03.907Z,94.30
2019-04-16T23:52:35.343Z,95.10
2019-04-16T23:55:03.711Z,95.70
2019-04-16T23:57:35.659Z,96.10
